Time;durP1;ratioP1;P1;durP2;ratioP2;P2;SDS_P1;SDS_P2;PMS_P1;PMS_P2;Temp;Humidity;BMP_temperature;BMP_pressure;BME280_temperature;BME280_humidity;BME280_pressure;Samples;Min_cycle;Max_cycle;Signal;HPM_P1;HPM_P2
2023/01/16 00:01:50;;;;;;;4.20;3.80;;;4.80;99.90;;;;;;6283653;22;20015;-76
2023/01/16 00:04:16;;;;;;;7.05;5.07;;;4.60;99.90;;;;;;6258727;22;20012;-77
2023/01/16 00:06:42;;;;;;;6.05;4.47;;;4.50;99.90;;;;;;6233503;22;20155;-74
2023/01/16 00:09:07;;;;;;;6.13;4.75;;;5.00;99.90;;;;;;6233849;22;20183;-77
2023/01/16 00:11:36;;;;;;;8.50;5.43;;;4.50;99.90;;;;;;6259646;22;20011;-77
2023/01/16 00:14:02;;;;;;;9.32;5.18;;;4.90;99.90;;;;;;6284166;22;20317;-77
2023/01/16 00:16:28;;;;;;;7.10;4.78;;;4.60;99.90;;;;;;6259337;22;20019;-77
2023/01/16 00:19:44;;;;;;;9.27;4.78;;;5.00;99.90;;;;;;6285747;22;20026;-77
2023/01/16 00:22:10;;;;;;;9.60;4.90;;;5.20;99.90;;;;;;6256048;22;20049;-77
2023/01/16 00:24:38;;;;;;;7.50;4.35;;;5.00;99.90;;;;;;6261449;22;20039;-78
2023/01/16 00:27:04;;;;;;;7.53;4.53;;;4.60;99.90;;;;;;6260384;22;20055;-77
2023/01/16 00:29:30;;;;;;;10.40;4.65;;;4.90;99.90;;;;;;6260701;22;20340;-79
2023/01/16 00:31:55;;;;;;;7.15;4.18;;;4.50;99.90;;;;;;6260363;22;20008;-77
2023/01/16 00:34:21;;;;;;;6.07;4.50;;;4.50;99.90;;;;;;6260750;22;20171;-78
2023/01/16 00:36:47;;;;;;;7.43;4.25;;;4.90;99.90;;;;;;6261419;22;20037;-78
2023/01/16 00:39:12;;;;;;;8.02;3.97;;;4.50;99.90;;;;;;6261106;22;20011;-79
2023/01/16 00:41:38;;;;;;;5.10;3.50;;;5.10;99.90;;;;;;6285280;22;20039;-78
2023/01/16 00:44:04;;;;;;;6.72;3.33;;;4.30;99.90;;;;;;6235114;22;20636;-78
2023/01/16 00:46:30;;;;;;;4.70;3.47;;;4.90;99.90;;;;;;6285883;22;20018;-79
2023/01/16 00:48:56;;;;;;;5.72;3.05;;;4.70;99.90;;;;;;6260489;22;20216;-78
2023/01/16 00:51:22;;;;;;;5.85;3.72;;;4.30;99.90;;;;;;6286983;22;20007;-78
2023/01/16 00:53:48;;;;;;;8.75;3.80;;;4.20;99.90;;;;;;6264364;22;20027;-78
2023/01/16 00:56:13;;;;;;;5.82;3.70;;;4.10;99.90;;;;;;6264927;22;20019;-78
2023/01/16 00:58:39;;;;;;;4.68;3.13;;;4.40;99.90;;;;;;6289992;22;20249;-78
2023/01/16 01:01:05;;;;;;;6.28;3.40;;;3.90;99.90;;;;;;6265750;22;20026;-79
2023/01/16 01:03:31;;;;;;;7.40;3.22;;;4.10;99.90;;;;;;6263907;22;20011;-78
2023/01/16 01:05:58;;;;;;;8.07;3.30;;;4.20;99.90;;;;;;6289286;22;20017;-77
2023/01/16 01:08:23;;;;;;;4.28;2.72;;;3.80;99.90;;;;;;6316803;22;20007;-78
2023/01/16 01:10:49;;;;;;;5.75;3.03;;;4.30;99.90;;;;;;6290555;22;20074;-78
2023/01/16 01:13:15;;;;;;;5.88;3.53;;;5.80;99.90;;;;;;6316645;22;20019;-78
2023/01/16 01:15:41;;;;;;;5.88;2.58;;;3.60;99.90;;;;;;6291428;22;20015;-77
2023/01/16 01:18:06;;;;;;;7.57;3.28;;;2.50;99.90;;;;;;6290976;22;20071;-80
2023/01/16 01:20:32;;;;;;;6.80;3.17;;;3.80;99.90;;;;;;6292688;22;20016;-78
2023/01/16 01:22:58;;;;;;;5.05;2.72;;;4.20;99.90;;;;;;6290635;22;20013;-78
2023/01/16 01:25:24;;;;;;;4.90;2.92;;;3.80;99.90;;;;;;6292361;22;20067;-78
2023/01/16 01:27:50;;;;;;;5.07;2.92;;;4.80;99.90;;;;;;6290265;22;20015;-78
2023/01/16 01:30:16;;;;;;;6.85;3.13;;;3.80;99.90;;;;;;6290234;22;20007;-77
2023/01/16 01:32:42;;;;;;;9.18;3.20;;;4.00;99.90;;;;;;6289853;22;20038;-78
2023/01/16 01:35:08;;;;;;;5.18;2.97;;;4.30;99.90;;;;;;6291819;22;20070;-78
2023/01/16 01:37:35;;;;;;;6.65;3.58;;;3.80;99.90;;;;;;6291026;22;20018;-77
2023/01/16 01:40:01;;;;;;;6.15;3.03;;;3.90;99.90;;;;;;6290454;22;20019;-77
2023/01/16 01:42:42;;;;;;;4.93;3.20;;;4.00;99.90;;;;;;6291028;22;20017;-78
2023/01/16 01:45:29;;;;;;;4.72;2.58;;;4.20;99.90;;;;;;6291171;22;20052;-78
2023/01/16 01:48:13;;;;;;;7.78;3.25;;;4.40;99.90;;;;;;6290157;22;20010;-78
2023/01/16 01:50:53;;;;;;;5.15;2.80;;;4.30;99.90;;;;;;6317109;22;20015;-77
2023/01/16 01:53:31;;;;;;;8.45;2.88;;;4.30;99.90;;;;;;6289121;22;20034;-77
2023/01/16 01:56:01;;;;;;;4.93;3.08;;;4.30;99.90;;;;;;6289947;22;20014;-78
2023/01/16 01:58:28;;;;;;;6.90;3.50;;;3.90;99.90;;;;;;6315456;22;20007;-78
2023/01/16 02:00:56;;;;;;;5.65;2.70;;;4.20;99.90;;;;;;6264658;22;20006;-78
2023/01/16 02:03:34;;;;;;;7.55;3.42;;;4.20;99.90;;;;;;6289579;22;20007;-78
2023/01/16 02:06:05;;;;;;;6.15;3.42;;;4.30;99.90;;;;;;6314231;22;20015;-78
2023/01/16 02:08:33;;;;;;;9.38;3.47;;;3.80;99.90;;;;;;6313345;22;20014;-77
2023/01/16 02:11:07;;;;;;;5.78;3.20;;;5.00;99.90;;;;;;6262715;22;20015;-77
2023/01/16 02:13:34;;;;;;;5.65;3.10;;;3.80;99.90;;;;;;6286033;22;20431;-77
2023/01/16 02:20:14;;;;;;;6.45;3.10;;;3.80;99.90;;;;;;6322012;22;20009;-78
2023/01/16 02:22:58;;;;;;;6.97;3.58;;;4.10;99.90;;;;;;6315000;22;20257;-79
2023/01/16 02:26:01;;;;;;;6.32;3.20;;;4.10;99.90;;;;;;6290070;22;20007;-78
2023/01/16 02:28:46;;;;;;;5.53;2.58;;;3.80;99.90;;;;;;6315763;22;20281;-79
2023/01/16 02:31:26;;;;;;;4.28;2.53;;;3.90;99.90;;;;;;6315354;22;20092;-79
2023/01/16 02:34:13;;;;;;;8.48;3.30;;;4.30;99.90;;;;;;6289568;22;20046;-78
2023/01/16 02:37:04;;;;;;;8.95;3.25;;;4.00;99.90;;;;;;6290327;22;20015;-78
2023/01/16 02:39:39;;;;;;;5.60;2.60;;;4.10;99.90;;;;;;6290788;22;20007;-79
2023/01/16 02:42:25;;;;;;;8.57;3.30;;;4.10;99.90;;;;;;6289432;22;20022;-78
2023/01/16 02:44:57;;;;;;;4.03;2.13;;;3.90;99.90;;;;;;6289989;22;20037;-78
2023/01/16 02:47:45;;;;;;;6.88;3.20;;;4.00;99.90;;;;;;6316611;22;20484;-78
2023/01/16 02:50:26;;;;;;;3.58;2.08;;;4.40;99.90;;;;;;6291191;22;20289;-79
2023/01/16 02:53:10;;;;;;;4.65;2.30;;;4.30;99.90;;;;;;6290020;22;20016;-79
2023/01/16 02:55:45;;;;;;;7.15;3.05;;;4.10;99.90;;;;;;6315691;22;20182;-77
2023/01/16 02:58:14;;;;;;;5.35;2.10;;;4.00;99.90;;;;;;6290554;22;20021;-77
2023/01/16 03:00:52;;;;;;;6.13;3.00;;;4.20;99.90;;;;;;6265541;22;20078;-77
2023/01/16 03:03:44;;;;;;;4.93;2.53;;;4.10;99.90;;;;;;6290585;22;20066;-78
2023/01/16 03:06:39;;;;;;;8.10;2.92;;;4.50;99.90;;;;;;6211815;22;20025;-77
2023/01/16 03:09:08;;;;;;;6.03;2.50;;;4.60;99.90;;;;;;6282080;22;20040;-79
2023/01/16 03:12:00;;;;;;;7.68;2.40;;;4.10;99.90;;;;;;6290097;22;20007;-78
2023/01/16 03:14:37;;;;;;;5.57;2.78;;;4.40;99.90;;;;;;6316994;22;20094;-79
2023/01/16 03:17:38;;;;;;;8.13;2.47;;;4.30;99.90;;;;;;6290030;22;20167;-79
2023/01/16 03:20:17;;;;;;;4.50;2.30;;;4.10;99.90;;;;;;6289278;22;20197;-79
2023/01/16 03:23:12;;;;;;;8.68;2.60;;;4.30;99.90;;;;;;6317238;22;20056;-76
2023/01/16 03:26:01;;;;;;;4.05;2.60;;;4.50;99.90;;;;;;6290383;22;20286;-78
2023/01/16 03:29:12;;;;;;;7.88;2.60;;;4.40;99.90;;;;;;6268989;22;20305;-78
2023/01/16 03:31:45;;;;;;;5.63;2.20;;;4.20;99.90;;;;;;6268015;22;20007;-79
2023/01/16 03:34:31;;;;;;;7.50;2.83;;;4.20;99.90;;;;;;6290976;22;20007;-78
2023/01/16 03:37:16;;;;;;;4.82;2.63;;;4.20;99.90;;;;;;6293828;22;20044;-78
2023/01/16 03:39:46;;;;;;;6.45;2.70;;;4.60;99.90;;;;;;6316986;22;20018;-78
2023/01/16 03:42:16;;;;;;;6.90;2.42;;;4.10;99.90;;;;;;6290130;22;20070;-77
2023/01/16 03:44:51;;;;;;;6.30;2.38;;;4.10;99.90;;;;;;6291170;22;20011;-78
2023/01/16 03:47:30;;;;;;;5.35;2.60;;;4.30;99.90;;;;;;6290000;22;20062;-78
2023/01/16 03:50:02;;;;;;;3.67;2.25;;;5.80;99.90;;;;;;6316681;22;20062;-78
2023/01/16 03:52:43;;;;;;;6.63;2.50;;;4.50;99.90;;;;;;6291518;22;20014;-78
2023/01/16 03:55:16;;;;;;;5.13;2.40;;;4.00;99.90;;;;;;6264162;22;20070;-78
2023/01/16 03:57:50;;;;;;;8.52;2.65;;;4.70;99.90;;;;;;6261942;22;20195;-78
2023/01/16 04:00:18;;;;;;;9.02;2.25;;;4.30;99.90;;;;;;6262471;22;20092;-77
2023/01/16 04:03:04;;;;;;;7.68;2.97;;;4.50;99.90;;;;;;6287156;22;20046;-79
2023/01/16 04:05:36;;;;;;;6.07;2.40;;;4.30;99.90;;;;;;6287070;22;20018;-77
2023/01/16 04:08:07;;;;;;;4.65;2.47;;;4.40;99.90;;;;;;6260511;22;20064;-77
2023/01/16 04:10:36;;;;;;;3.00;2.10;;;3.80;99.90;;;;;;6261362;22;20015;-78
2023/01/16 04:13:18;;;;;;;5.93;2.50;;;3.80;99.90;;;;;;6287007;22;20014;-79
2023/01/16 04:15:52;;;;;;;4.40;2.67;;;4.30;99.90;;;;;;6261334;22;20301;-79
2023/01/16 04:18:21;;;;;;;6.20;2.75;;;4.10;99.90;;;;;;6261844;22;20007;-78
2023/01/16 04:20:51;;;;;;;7.50;3.13;;;4.40;99.90;;;;;;6261478;22;20015;-78
2023/01/16 04:23:17;;;;;;;4.75;2.67;;;3.90;99.90;;;;;;6236527;22;20022;-81
2023/01/16 04:25:45;;;;;;;6.72;2.63;;;4.00;99.90;;;;;;6261521;22;20007;-77
2023/01/16 04:28:10;;;;;;;7.13;3.17;;;4.10;99.90;;;;;;6286099;22;20023;-78
2023/01/16 04:30:39;;;;;;;7.93;2.92;;;4.70;99.90;;;;;;6236224;22;20014;-79
2023/01/16 04:33:06;;;;;;;5.60;3.20;;;5.00;99.90;;;;;;6259830;22;20022;-77
2023/01/16 04:35:32;;;;;;;6.72;2.90;;;4.70;99.90;;;;;;6236255;22;20070;-77
2023/01/16 04:37:58;;;;;;;5.50;3.13;;;4.50;99.90;;;;;;6235991;22;20066;-79
2023/01/16 04:40:24;;;;;;;6.05;3.33;;;4.50;99.90;;;;;;6261496;22;20022;-78
2023/01/16 04:42:50;;;;;;;7.97;3.50;;;4.20;99.90;;;;;;6285834;22;20058;-77
2023/01/16 04:45:16;;;;;;;7.28;3.95;;;4.30;99.90;;;;;;6285360;22;20019;-77
2023/01/16 04:47:49;;;;;;;6.90;3.22;;;4.50;99.90;;;;;;6260915;22;20019;-78
2023/01/16 04:50:15;;;;;;;12.63;3.72;;;4.10;99.90;;;;;;6286527;22;20022;-77
2023/01/16 04:52:41;;;;;;;7.20;3.78;;;4.20;99.90;;;;;;6261614;22;20274;-77
2023/01/16 04:55:08;;;;;;;7.05;3.83;;;4.10;99.90;;;;;;6259939;22;20037;-78
2023/01/16 04:57:34;;;;;;;8.77;3.70;;;4.70;99.90;;;;;;6286320;22;20023;-78
2023/01/16 05:00:00;;;;;;;6.43;3.83;;;4.50;99.90;;;;;;6285400;22;20073;-77
2023/01/16 05:02:25;;;;;;;7.32;4.43;;;4.80;99.90;;;;;;6285290;22;20065;-76
2023/01/16 05:04:51;;;;;;;8.18;4.18;;;4.20;99.90;;;;;;6258653;22;20066;-76
2023/01/16 05:07:17;;;;;;;8.43;4.22;;;4.60;99.90;;;;;;6285554;22;20007;-77
2023/01/16 05:09:44;;;;;;;5.47;3.55;;;4.50;99.90;;;;;;6261614;22;20015;-78
2023/01/16 05:12:10;;;;;;;4.20;2.80;;;4.70;99.90;;;;;;6235432;22;20162;-78
2023/01/16 05:14:38;;;;;;;8.43;3.97;;;4.10;99.90;;;;;;6286994;22;20059;-78
2023/01/16 05:17:07;;;;;;;8.07;3.90;;;4.60;99.90;;;;;;6236541;22;20046;-77
2023/01/16 05:19:33;;;;;;;8.27;4.10;;;6.50;99.90;;;;;;6237370;22;20458;-79
2023/01/16 05:21:58;;;;;;;5.32;3.47;;;4.60;99.90;;;;;;6233604;22;20047;-78
2023/01/16 05:24:24;;;;;;;8.82;4.65;;;4.60;99.90;;;;;;6236099;22;20065;-78
2023/01/16 05:26:50;;;;;;;8.93;4.72;;;4.10;99.90;;;;;;6259890;22;20011;-77
2023/01/16 05:29:15;;;;;;;8.68;4.25;;;4.10;99.90;;;;;;6286660;22;20345;-78
2023/01/16 05:31:41;;;;;;;9.98;5.55;;;4.20;99.90;;;;;;6285773;22;20057;-78
2023/01/16 05:34:09;;;;;;;10.90;6.15;;;4.30;99.90;;;;;;6259333;22;20015;-78
2023/01/16 05:36:35;;;;;;;9.82;6.03;;;4.40;99.90;;;;;;6260182;22;20011;-78
2023/01/16 05:39:01;;;;;;;10.95;5.97;;;4.50;99.90;;;;;;6260214;22;20101;-77
2023/01/16 05:41:26;;;;;;;14.05;6.07;;;6.10;99.90;;;;;;6285727;22;20047;-77
2023/01/16 05:43:52;;;;;;;11.30;5.22;;;4.70;99.90;;;;;;6235909;22;20014;-77
2023/01/16 05:46:18;;;;;;;7.97;4.95;;;4.70;99.90;;;;;;6234342;22;20061;-78
2023/01/16 05:48:43;;;;;;;9.57;5.20;;;4.40;99.90;;;;;;6236010;22;20003;-78
2023/01/16 05:51:11;;;;;;;9.45;5.50;;;4.60;99.90;;;;;;6285516;22;20019;-77
2023/01/16 05:53:37;;;;;;;11.73;6.28;;;4.50;99.90;;;;;;6285796;22;20201;-76
2023/01/16 05:56:13;;;;;;;11.02;6.05;;;4.60;99.90;;;;;;6265895;22;20046;-77
2023/01/16 05:58:42;;;;;;;12.15;6.10;;;4.60;99.90;;;;;;6267591;22;20069;-76
2023/01/16 06:01:07;;;;;;;11.65;5.95;;;4.00;99.90;;;;;;6315601;22;20003;-77
2023/01/16 06:03:33;;;;;;;15.27;6.68;;;4.50;99.90;;;;;;6264766;22;20007;-79
2023/01/16 06:05:59;;;;;;;10.73;5.65;;;4.50;99.90;;;;;;6265743;22;20007;-79
2023/01/16 06:08:25;;;;;;;11.52;6.30;;;4.70;99.90;;;;;;6290956;22;20319;-79
2023/01/16 06:10:50;;;;;;;13.02;6.35;;;3.80;99.90;;;;;;6263904;22;20015;-78
2023/01/16 06:13:16;;;;;;;11.18;6.80;;;4.50;99.90;;;;;;6265601;22;20013;-78
2023/01/16 06:15:42;;;;;;;13.70;5.88;;;3.80;99.90;;;;;;6290035;22;20015;-78
2023/01/16 06:18:08;;;;;;;14.68;7.13;;;4.10;99.90;;;;;;6264198;22;20252;-78
2023/01/16 06:20:34;;;;;;;10.32;7.00;;;4.20;99.90;;;;;;6289302;22;20021;-78
2023/01/16 06:23:02;;;;;;;13.30;6.97;;;3.70;99.90;;;;;;6291560;22;20074;-79
2023/01/16 06:25:28;;;;;;;17.27;8.95;;;4.10;99.90;;;;;;6316715;22;20074;-78
2023/01/16 06:27:54;;;;;;;20.10;9.48;;;4.30;99.90;;;;;;6291326;22;20329;-78
2023/01/16 06:30:19;;;;;;;15.30;8.63;;;4.30;99.90;;;;;;6289470;22;20014;-78
2023/01/16 06:32:49;;;;;;;15.20;8.75;;;4.20;99.90;;;;;;6290317;22;20006;-78
2023/01/16 06:35:16;;;;;;;16.33;8.77;;;3.70;99.90;;;;;;6289032;22;20006;-78
2023/01/16 06:37:41;;;;;;;19.05;9.65;;;3.70;99.90;;;;;;6264804;22;20010;-79
2023/01/16 06:40:08;;;;;;;14.00;7.93;;;4.20;99.90;;;;;;6263485;22;20041;-78
2023/01/16 06:42:33;;;;;;;20.15;9.68;;;3.70;99.90;;;;;;6290138;22;20073;-78
2023/01/16 06:44:59;;;;;;;16.33;9.23;;;4.30;99.90;;;;;;6264310;22;20030;-78
2023/01/16 06:47:27;;;;;;;13.13;7.38;;;4.20;99.90;;;;;;6265909;22;20405;-76
2023/01/16 06:49:53;;;;;;;17.52;8.68;;;3.80;99.90;;;;;;6266554;22;20029;-75
2023/01/16 06:52:18;;;;;;;17.63;8.27;;;4.10;99.90;;;;;;6291303;22;20346;-78
2023/01/16 06:54:44;;;;;;;13.98;7.90;;;4.10;99.90;;;;;;6286042;22;20011;-77
2023/01/16 06:57:10;;;;;;;12.45;6.78;;;4.00;99.90;;;;;;6310726;22;20179;-76
2023/01/16 06:59:35;;;;;;;14.57;6.43;;;4.00;99.90;;;;;;6259788;22;20015;-76
2023/01/16 07:02:01;;;;;;;19.35;7.38;;;3.90;99.90;;;;;;6260067;22;20247;-78
2023/01/16 07:04:27;;;;;;;14.70;6.85;;;4.00;99.90;;;;;;6259613;22;20070;-76
2023/01/16 07:06:52;;;;;;;13.20;7.53;;;4.30;99.90;;;;;;6259182;22;20190;-77
2023/01/16 07:09:18;;;;;;;15.75;7.25;;;3.80;99.90;;;;;;6284724;22;20019;-76
2023/01/16 07:11:44;;;;;;;10.73;7.00;;;3.90;99.90;;;;;;6283582;22;20015;-77
2023/01/16 07:22:34;;;;;;;14.43;7.63;;;3.90;99.90;;;;;;6310300;22;20104;-77
2023/01/16 07:25:03;;;;;;;12.40;7.68;;;3.70;99.90;;;;;;6284290;22;20112;-77
2023/01/16 07:27:34;;;;;;;13.55;7.53;;;3.60;99.90;;;;;;6310938;22;20489;-78
2023/01/16 07:30:00;;;;;;;15.18;7.70;;;5.10;99.90;;;;;;6286728;22;20096;-77
2023/01/16 07:32:25;;;;;;;13.23;7.90;;;4.10;99.90;;;;;;6260645;22;20019;-79
2023/01/16 07:34:51;;;;;;;11.00;6.25;;;4.10;99.90;;;;;;6287632;22;20015;-79
2023/01/16 07:37:17;;;;;;;13.48;7.10;;;3.70;99.90;;;;;;6262233;22;20039;-79
2023/01/16 07:39:42;;;;;;;15.73;8.00;;;4.30;99.90;;;;;;6288397;22;20011;-79
2023/01/16 07:42:08;;;;;;;14.82;6.90;;;3.70;99.90;;;;;;6262317;22;20233;-80
2023/01/16 07:44:34;;;;;;;13.25;7.20;;;3.50;99.90;;;;;;6287023;22;20054;-80
2023/01/16 07:47:00;;;;;;;11.52;6.47;;;3.50;99.90;;;;;;6262281;22;20011;-80
2023/01/16 07:49:25;;;;;;;15.32;6.78;;;3.50;99.90;;;;;;6286604;22;20187;-78
2023/01/16 07:51:51;;;;;;;13.75;7.18;;;3.80;99.90;;;;;;6287361;22;20008;-78
2023/01/16 07:54:17;;;;;;;10.90;5.97;;;4.00;99.90;;;;;;6261189;22;20011;-78
2023/01/16 07:56:43;;;;;;;13.70;6.57;;;4.00;99.90;;;;;;6260791;22;20047;-79
2023/01/16 07:59:08;;;;;;;9.63;5.53;;;3.50;99.90;;;;;;6261984;22;20015;-78
2023/01/16 08:01:34;;;;;;;11.07;7.10;;;4.00;99.90;;;;;;6261651;22;20072;-79
2023/01/16 08:04:05;;;;;;;10.98;5.45;;;3.50;99.90;;;;;;6263236;22;20092;-79
2023/01/16 08:06:31;;;;;;;12.18;7.15;;;3.60;99.90;;;;;;6261241;22;20011;-79
2023/01/16 08:08:57;;;;;;;12.35;6.35;;;3.60;99.90;;;;;;6261929;22;20015;-77
2023/01/16 08:11:35;;;;;;;10.70;5.43;;;4.00;99.90;;;;;;6261453;22;20035;-78
2023/01/16 08:14:01;;;;;;;10.50;6.53;;;5.00;99.90;;;;;;6261600;22;20022;-77
2023/01/16 08:16:27;;;;;;;10.25;5.65;;;3.50;99.90;;;;;;6261353;22;20013;-78
2023/01/16 08:18:53;;;;;;;12.98;5.97;;;3.40;99.90;;;;;;6237147;22;20019;-77
2023/01/16 08:21:18;;;;;;;13.30;6.68;;;3.80;99.90;;;;;;6287610;22;20018;-78
2023/01/16 08:23:44;;;;;;;11.82;6.78;;;4.00;99.90;;;;;;6262654;22;20039;-78
2023/01/16 08:26:11;;;;;;;8.13;4.47;;;3.70;99.90;;;;;;6236094;22;20033;-78
2023/01/16 08:28:42;;;;;;;10.07;5.35;;;4.20;99.90;;;;;;6287472;22;20194;-78
2023/01/16 08:31:13;;;;;;;11.40;6.43;;;3.70;99.90;;;;;;6238599;22;20014;-78
2023/01/16 08:33:42;;;;;;;12.80;6.88;;;3.60;99.90;;;;;;6236495;22;20050;-77
2023/01/16 08:36:10;;;;;;;12.18;6.25;;;4.60;99.90;;;;;;6261783;22;20084;-77
2023/01/16 08:38:36;;;;;;;11.27;5.47;;;3.60;99.90;;;;;;6260423;22;20007;-75
2023/01/16 08:41:04;;;;;;;11.55;5.82;;;3.60;99.90;;;;;;6234955;22;20037;-75
2023/01/16 08:52:46;;;;;;;;;;;;;;;;;;;;;
2023/01/16 08:55:25;;;;;;;10.10;5.13;;;4.90;99.90;;;;;;6304764;22;20019;-77
2023/01/16 08:57:51;;;;;;;11.15;5.80;;;4.30;99.90;;;;;;6260935;22;20182;-77
2023/01/16 09:00:19;;;;;;;10.52;5.82;;;3.80;99.90;;;;;;6260539;22;20011;-76
2023/01/16 09:02:46;;;;;;;11.45;5.50;;;4.10;99.90;;;;;;6286796;22;20078;-76
2023/01/16 09:05:13;;;;;;;8.10;5.20;;;3.70;99.90;;;;;;6261467;22;20025;-76
2023/01/16 09:07:39;;;;;;;11.02;5.45;;;4.40;99.90;;;;;;6261967;22;20019;-76
2023/01/16 09:10:08;;;;;;;8.90;5.97;;;4.10;99.90;;;;;;6260882;22;20352;-76
2023/01/16 09:15:18;;;;;;;12.48;5.85;;;3.80;99.90;;;;;;6310365;22;20015;-76
2023/01/16 09:17:44;;;;;;;10.15;5.47;;;4.70;99.90;;;;;;6259282;22;20036;-76
2023/01/16 09:20:10;;;;;;;11.13;5.53;;;4.20;99.90;;;;;;6284942;22;20011;-76
2023/01/16 09:22:36;;;;;;;7.93;5.00;;;3.90;99.90;;;;;;6284131;22;20012;-76
2023/01/16 09:25:01;;;;;;;9.23;4.60;;;3.90;99.90;;;;;;6283848;22;20011;-77
2023/01/16 09:27:27;;;;;;;6.50;4.10;;;4.00;99.90;;;;;;6283699;22;20258;-76
2023/01/16 09:29:53;;;;;;;7.82;5.43;;;4.50;99.90;;;;;;6283642;22;20043;-76
2023/01/16 09:32:20;;;;;;;7.35;5.28;;;4.00;99.90;;;;;;6258905;22;20015;-77
2023/01/16 09:36:06;;;;;;;8.48;4.78;;;4.00;99.90;;;;;;6310159;22;20265;-76
2023/01/16 09:38:17;;;;;;;7.15;4.07;;;4.40;99.90;;;;;;6278345;22;20015;-76
2023/01/16 09:40:50;;;;;;;9.75;5.88;;;4.50;99.90;;;;;;6306247;22;20056;-77
2023/01/16 09:43:42;;;;;;;7.07;3.95;;;4.10;99.90;;;;;;6284536;22;20014;-77
2023/01/16 09:46:25;;;;;;;6.85;3.50;;;4.10;99.90;;;;;;6310465;22;20062;-77
2023/01/16 09:48:55;;;;;;;7.22;4.72;;;4.10;99.90;;;;;;6310225;22;20022;-77
2023/01/16 09:51:29;;;;;;;9.48;4.90;;;4.60;99.90;;;;;;6283575;22;20060;-77
2023/01/16 09:59:44;;;;;;;8.45;3.20;;;4.40;99.90;;;;;;6314684;22;20037;-78
2023/01/16 10:02:27;;;;;;;5.78;3.83;;;4.20;99.90;;;;;;6289557;22;20032;-76
2023/01/16 10:04:55;;;;;;;4.57;3.40;;;4.60;99.90;;;;;;6315583;22;20070;-77
2023/01/16 10:07:48;;;;;;;7.85;4.30;;;4.60;99.90;;;;;;6289976;22;20019;-77
2023/01/16 10:10:45;;;;;;;3.88;2.35;;;4.50;99.90;;;;;;6315256;22;20214;-76
2023/01/16 10:13:33;;;;;;;5.45;3.00;;;4.60;99.90;;;;;;6289624;22;20006;-77
2023/01/16 10:16:18;;;;;;;7.10;4.53;;;4.40;99.90;;;;;;6315458;22;20205;-76
2023/01/16 10:18:59;;;;;;;4.05;2.75;;;4.20;99.90;;;;;;6290057;22;20006;-76
2023/01/16 10:21:40;;;;;;;5.60;3.53;;;4.10;99.90;;;;;;6312082;22;20128;-76
2023/01/16 10:24:27;;;;;;;5.05;3.13;;;4.20;99.90;;;;;;6312403;22;20070;-75
2023/01/16 10:27:00;;;;;;;7.25;3.10;;;4.30;99.90;;;;;;6286876;22;20113;-76
2023/01/16 10:29:53;;;;;;;3.38;2.13;;;5.80;99.90;;;;;;6313673;22;20013;-76
2023/01/16 10:32:37;;;;;;;4.65;2.58;;;2.30;99.90;;;;;;6314929;22;20052;-75
2023/01/16 10:35:23;;;;;;;3.63;2.03;;;4.40;99.90;;;;;;6289420;22;20030;-76
2023/01/16 10:37:50;;;;;;;6.18;2.55;;;4.70;99.90;;;;;;6287151;22;20010;-76
2023/01/16 10:40:26;;;;;;;6.25;3.33;;;4.50;99.90;;;;;;6289580;22;20212;-76
2023/01/16 10:51:30;;;;;;;2.78;2.30;;;4.30;99.90;;;;;;6313991;22;20348;-75
2023/01/16 10:53:58;;;;;;;4.68;2.08;;;4.50;99.90;;;;;;6289140;22;20019;-75
2023/01/16 10:56:24;;;;;;;1.52;1.23;;;4.50;99.90;;;;;;6287131;22;20050;-75
2023/01/16 10:58:51;;;;;;;3.85;2.70;;;4.50;99.90;;;;;;6288550;22;20227;-75
2023/01/16 11:01:24;;;;;;;2.63;1.65;;;4.20;99.90;;;;;;6264230;22;20014;-75
2023/01/16 11:03:54;;;;;;;5.00;3.20;;;4.40;99.90;;;;;;6314008;22;20064;-75
2023/01/16 11:06:22;;;;;;;6.45;2.03;;;4.70;99.90;;;;;;6313582;22;20006;-75
2023/01/16 11:09:12;;;;;;;2.55;1.13;;;4.20;99.90;;;;;;6287336;22;20070;-74
2023/01/16 11:20:22;;;;;;;1.42;1.25;;;3.80;99.90;;;;;;6313534;22;20015;-74
2023/01/16 11:22:57;;;;;;;2.90;1.60;;;3.70;99.90;;;;;;6314221;22;20048;-73
2023/01/16 11:25:23;;;;;;;3.45;1.42;;;4.20;99.90;;;;;;6314816;22;20022;-74
2023/01/16 11:27:51;;;;;;;1.95;1.60;;;4.80;99.90;;;;;;6314073;22;20074;-74
2023/01/16 11:30:21;;;;;;;4.03;1.83;;;4.80;99.90;;;;;;6263979;22;20305;-76
2023/01/16 11:32:49;;;;;;;3.47;1.80;;;3.70;99.90;;;;;;6287225;22;20015;-74
2023/01/16 11:35:18;;;;;;;3.65;1.52;;;3.70;99.90;;;;;;6289804;22;20245;-74
2023/01/16 11:37:48;;;;;;;3.13;1.75;;;3.70;99.90;;;;;;6314752;22;20019;-75
2023/01/16 11:40:20;;;;;;;2.05;1.25;;;4.20;99.90;;;;;;6314947;22;20018;-74
2023/01/16 11:46:07;;;;;;;4.15;1.83;;;3.80;99.90;;;;;;6315106;22;20022;-74
2023/01/16 11:48:40;;;;;;;4.60;1.90;;;4.30;99.90;;;;;;6313996;22;20011;-74
2023/01/16 11:51:11;;;;;;;3.22;1.95;;;4.00;99.90;;;;;;6314939;22;20515;-74
2023/01/16 11:53:37;;;;;;;2.80;1.67;;;4.20;99.90;;;;;;6313760;22;20540;-74
2023/01/16 11:56:11;;;;;;;2.80;1.95;;;4.20;99.90;;;;;;6290088;22;20015;-74
2023/01/16 11:58:56;;;;;;;2.58;1.50;;;4.50;99.90;;;;;;6314416;22;20018;-74
2023/01/16 12:04:25;;;;;;;6.45;2.35;;;4.10;99.90;;;;;;6314895;22;20011;-75
2023/01/16 12:07:06;;;;;;;3.90;1.67;;;4.50;99.90;;;;;;6289005;22;20050;-74
2023/01/16 12:09:54;;;;;;;1.75;1.27;;;4.30;99.90;;;;;;6288184;22;20197;-74
2023/01/16 12:15:37;;;;;;;2.53;1.60;;;3.90;99.90;;;;;;6316879;22;20021;-74
2023/01/16 12:18:33;;;;;;;2.50;1.52;;;4.30;99.90;;;;;;6289912;22;20034;-75
2023/01/16 12:21:01;;;;;;;2.70;1.52;;;4.10;99.90;;;;;;6213473;22;20220;-75
2023/01/16 12:24:09;;;;;;;2.05;1.55;;;3.90;99.90;;;;;;6316460;22;20011;-75
2023/01/16 12:27:23;;;;;;;4.60;1.58;;;4.30;99.90;;;;;;6316065;22;20006;-75
2023/01/16 12:29:49;;;;;;;2.42;1.90;;;3.90;99.90;;;;;;6289555;22;20245;-74
2023/01/16 12:32:33;;;;;;;3.47;1.20;;;4.10;99.90;;;;;;6316558;22;20007;-76
2023/01/16 12:35:35;;;;;;;2.00;1.60;;;4.50;99.90;;;;;;6316347;22;20292;-76
2023/01/16 12:38:29;;;;;;;2.25;1.35;;;4.50;99.90;;;;;;6288332;22;20041;-76
2023/01/16 12:44:41;;;;;;;2.22;1.15;;;4.60;99.90;;;;;;6315574;22;20015;-75
2023/01/16 12:47:16;;;;;;;4.05;2.05;;;4.30;99.90;;;;;;6316708;22;20018;-75
2023/01/16 12:49:52;;;;;;;3.55;2.20;;;4.00;99.90;;;;;;6290255;22;20015;-76
2023/01/16 12:52:26;;;;;;;2.33;1.48;;;4.50;99.90;;;;;;6315624;22;20049;-74
2023/01/16 12:54:52;;;;;;;4.57;1.92;;;4.60;99.90;;;;;;6310434;22;20262;-74
2023/01/16 12:57:24;;;;;;;3.05;1.90;;;4.30;99.90;;;;;;6285666;22;20305;-75
2023/01/16 13:00:10;;;;;;;3.20;1.90;;;4.70;99.90;;;;;;6310873;22;20019;-75
2023/01/16 13:02:39;;;;;;;2.05;1.60;;;4.70;99.90;;;;;;6283214;22;20237;-76
2023/01/16 13:05:12;;;;;;;5.18;2.53;;;4.40;99.90;;;;;;6311391;22;20069;-75
2023/01/16 13:07:44;;;;;;;2.55;1.90;;;5.20;99.90;;;;;;6308599;22;20015;-76
2023/01/16 13:15:59;;;;;;;4.63;2.22;;;5.20;99.90;;;;;;6309036;22;20257;-75
2023/01/16 13:18:29;;;;;;;3.17;2.72;;;4.90;99.90;;;;;;6309422;22;20011;-74
2023/01/16 13:21:02;;;;;;;3.83;2.80;;;4.50;99.90;;;;;;6285853;22;20331;-75
2023/01/16 13:23:47;;;;;;;4.47;2.95;;;4.50;99.90;;;;;;6308766;22;20053;-75
2023/01/16 13:26:16;;;;;;;5.47;2.38;;;4.50;99.90;;;;;;6309953;22;20064;-75
2023/01/16 13:29:02;;;;;;;5.28;3.28;;;5.10;99.90;;;;;;6310083;22;20358;-74
2023/01/16 13:31:40;;;;;;;6.78;3.63;;;4.90;99.90;;;;;;6310067;22;20009;-75
2023/01/16 13:34:32;;;;;;;4.18;3.67;;;5.00;99.90;;;;;;6310203;22;20007;-74
2023/01/16 13:37:18;;;;;;;5.50;3.53;;;5.10;99.90;;;;;;6285672;22;20011;-74
2023/01/16 13:40:06;;;;;;;4.28;2.70;;;4.90;99.90;;;;;;6284798;22;20019;-75
2023/01/16 13:42:35;;;;;;;3.72;2.72;;;4.80;99.90;;;;;;6309824;22;20362;-75
2023/01/16 13:48:00;;;;;;;7.07;3.08;;;5.20;99.90;;;;;;6309859;22;20029;-74
2023/01/16 13:50:28;;;;;;;5.38;3.70;;;5.20;99.90;;;;;;6262740;22;20015;-74
2023/01/16 13:53:07;;;;;;;9.07;4.70;;;4.90;99.90;;;;;;6310153;22;20015;-74
2023/01/16 13:55:43;;;;;;;4.57;2.90;;;4.70;99.90;;;;;;6263952;22;20011;-75
2023/01/16 13:58:17;;;;;;;6.68;3.60;;;5.10;99.90;;;;;;6257964;22;20019;-75
2023/01/16 14:00:43;;;;;;;7.00;3.88;;;4.80;99.90;;;;;;6259148;22;20011;-75
2023/01/16 14:03:19;;;;;;;4.72;3.05;;;5.10;99.90;;;;;;6285019;22;20022;-74
2023/01/16 14:05:49;;;;;;;4.75;3.78;;;4.90;99.90;;;;;;6283699;22;20026;-75
2023/01/16 14:11:23;;;;;;;5.05;2.90;;;5.20;99.90;;;;;;6282932;22;20046;-75
2023/01/16 14:13:57;;;;;;;3.60;2.60;;;4.90;99.90;;;;;;6281498;22;20015;-75
2023/01/16 14:16:37;;;;;;;2.70;2.22;;;5.40;99.90;;;;;;6255631;22;20066;-75
2023/01/16 14:19:20;;;;;;;5.60;3.28;;;5.30;99.90;;;;;;6281669;22;20105;-75
2023/01/16 14:25:01;;;;;;;7.68;3.72;;;4.90;99.90;;;;;;6281925;22;20481;-75
2023/01/16 14:27:40;;;;;;;4.47;3.38;;;5.30;99.90;;;;;;6255432;22;20486;-75
2023/01/16 14:30:15;;;;;;;5.63;3.42;;;4.80;99.90;;;;;;6257311;22;20043;-75
2023/01/16 14:32:47;;;;;;;2.75;2.35;;;5.30;99.90;;;;;;6282735;22;20346;-75
2023/01/16 14:35:17;;;;;;;6.05;3.33;;;5.10;99.90;;;;;;6258465;22;20015;-75
2023/01/16 14:38:02;;;;;;;3.70;2.00;;;4.90;99.90;;;;;;6281381;22;20015;-74